X  SluitMETAR luchtvaart weer gegevens      EHGG Eelde Airport

Temperatuur

5°C Temperatuur

1°C Dauwpunt

76% Vochtigheid



Wind

14 KM/U

 9 MPH

 4 M/S

 8 KTS



250°
West Zuid
West
Huidig weer

Wat bewolking Wat bewolking
Luchtdruk 1005.92 (hPa) - 29.7 (in)
Zicht 6.2 (mi) - 10 (km)
Vliegveld
Vliegveld code EHGG

Locatie Eelde Airport 50 (km)

Metar:
EHGG 051955Z AUTO 25008KT 9999 FEW031 05/01 Q1006 NOSIG

Tijd: 05-05-2021 21:55